TFM - Tactical Decision Aid (Experimental) INFO Settings

ID: Runway Winds: CIG/VIS Threshold: METAR Board: Map:

KDFW - Dallas/Fort Worth Intl

Updated at: 0454 UTC 22 Dec 2014
Latest TAF at: 0300 UTC 22 Dec 2014

TAF Board

Time0353Z22/05Z22/06Z22/07Z22/08Z22/09Z22/10Z22/11Z22/12Z22/13Z22/14Z22/15Z22/16Z22/17Z
TypeOBSPRVLPRVLPRVLPRVLPRVLPRVLPRVLPRVLPRVLPRVLPRVLPRVLPRVL
VIS10>6>6>6>6>6>6>6>6>6>6>6>6>6
CIG14251818181818181818181818250
CoverOVCOVCOVCOVCOVCOVCOVCOVCOVCOVCOVCOVCOVCBKN
FltCatMVFRMVFRMVFRMVFRMVFRMVFRMVFRMVFRMVFRMVFRMVFRMVFRMVFRVFR
WX----------------------------
WDir170160170170170170170170170170170170170220
WSpd1314141414141414141414141412
WGst----------------------------
TAF
KDFW 220300Z 2203/2306 16014KT P6SM BKN025 OVC030
  FM220600 17014KT P6SM OVC018
  FM221700 22012KT P6SM SCT025 BKN250
  FM222000 33010KT P6SM BKN100


METAR
KDFW 220353Z 17013KT 10SM BKN014 OVC027 11/08 A2977 RMK AO2 SLP079 T01110083 $

TAF/METAR Board Legend

Potential Impact
  None Marginal Slight Moderate High
Visibility (sm) >5 3≤X≤5 1≤X<3 0.5≤X<1 <0.5
Ceiling (100 ft) >30 10≤X≤30 4≤X<10 2≤X<4 <2
Wind Speed (kt) <10 10≤X<20 20≤X<30 ≥30
Wind Gust (kt) <15 15≤X<25 25≤X<35 ≥35
Weather No Wx Reported VCTS -TS,-FZRA TS,FZRA +TS,+FZRA